Terminal Aerodrome Forecast
Issued by NWS

Home | Current Version | Previous Version | Text Only | Print | Product List | Glossary On
Versions: 1 2 3 4 5 6 7 8 9 10 11 12 13 14 15 16
054
FTUS46 KSEW 271121
TAFHQM
TAF
KHQM 271121Z 2712/2812 25010G20KT P6SM OVC014
     FM271800 25008KT P6SM BKN020 BKN050
     FM272200 25012KT P6SM FEW020 SCT050=

USA.gov is the U.S. government's official web portal to all federal, state and local government web resources and services.